Terminal Aerodrome Forecast
Issued by NWS Paducah, KY

Home | Current Version | Previous Version | Text Only | Print | Product List | Glossary On
Versions: 1 2 3 4 5 6 7 8 9 10 11 12 13 14 15 16 17 18 19
881
FTUS43 KPAH 142031 AAA
TAFEVV
TAF AMD
KEVV 142031Z 1421/1518 12007KT 2SM -SN BR BKN010 OVC025
      TEMPO 1421/1424 4SM BR OVC030
     FM150000 16006KT 5SM BR OVC015
     FM150200 VRB03KT 5SM BR OVC015=

USA.gov is the U.S. government's official web portal to all federal, state and local government web resources and services.